PWSweather.com
Personal Weather Stations
Station Observations
REUBENS
Camas Prairie, Reubens, ID 83548

Camas PrairieReubens, ID 83548

Lat: 46.35417, Lon: -116.53167

Elevation: 3480

Station Type: Davis VantagePro 2

http://www.theobrienranch.com/wx/wx.htm

High Low Average
Temperature 57.8°F14.3°F 46.4°F8.0°F 52.8°F11.6°F
Dew Point 52.1°F11.2°F 45.0°F7.2°F 48.4°F9.1°F
Winds 11.5 mph SW18.5 mph SW Calm Calm 4.4 mph 7.1 mph
Wind Gusts 13.8 mph22.2 mph -- 5.6 mph9.0 mph
Humidity 95% 75% 85%
Pressure 30.30 in1026.10 in 30.09 in1019.00 in -
Precipitation 0.20 in5.10 in - -
Hour Temp Dew Point Humidity Winds Wind Gusts Pressure Precip Precip Rate Daily Precip Total
12:00 AM 46.4°F8.0°C 45.0°F7.2°C 95% Calm Calm -- 30.29 in1025.7 mb - 0.00 in0.0 mm 0.00 in0.0 mm
12:15 AM 46.7°F8.2°C 45.3°F7.4°C 95% Calm Calm -- 30.28 in1025.4 mb - 0.00 in0.0 mm 0.00 in0.0 mm
12:30 AM 47.2°F8.4°C 45.9°F7.7°C 95% Calm Calm -- 30.28 in1025.4 mb - 0.01 in0.3 mm 0.01 in0.3 mm
12:45 AM 48.1°F8.9°C 46.7°F8.2°C 95% Calm Calm -- 30.28 in1025.4 mb - 0.00 in0.0 mm 0.01 in0.3 mm
01:00 AM 49.1°F9.5°C 47.2°F8.4°C 93% 4.6 mph S7.4 kmh S 5.8 mph9.3 kmh 30.27 in1025.1 mb - 0.00 in0.0 mm 0.01 in0.3 mm
01:15 AM 48.0°F8.9°C 45.8°F7.7°C 92% 5.8 mph S9.3 kmh S 6.9 mph11.1 kmh 30.27 in1025.1 mb - 0.01 in0.3 mm 0.02 in0.5 mm
01:30 AM 48.3°F9.1°C 46.4°F8.0°C 93% 4.6 mph S7.4 kmh S 3.5 mph5.6 kmh 30.27 in1025.1 mb - 0.00 in0.0 mm 0.02 in0.5 mm
01:45 AM 48.8°F9.3°C 46.5°F8.1°C 92% Calm Calm -- 30.28 in1025.4 mb - 0.01 in0.3 mm 0.03 in0.8 mm
02:00 AM 48.5°F9.2°C 46.6°F8.1°C 93% 1.2 mph SSW1.9 kmh SSW 1.2 mph1.9 kmh 30.29 in1025.7 mb - 0.01 in0.3 mm 0.04 in1.0 mm
02:15 AM 48.3°F9.1°C 46.7°F8.2°C 94% Calm Calm -- 30.30 in1026.1 mb - 0.01 in0.3 mm 0.05 in1.3 mm
02:30 AM 48.1°F8.9°C 46.5°F8.1°C 94% Calm Calm -- 30.30 in1026.1 mb - 0.02 in0.5 mm 0.07 in1.8 mm
02:45 AM 49.5°F9.7°C 47.8°F8.8°C 94% 2.3 mph SSW3.7 kmh SSW 3.5 mph5.6 kmh 30.28 in1025.4 mb - 0.02 in0.5 mm 0.08 in2.0 mm
03:00 AM 48.6°F9.2°C 46.6°F8.1°C 93% 2.3 mph S3.7 kmh S 3.5 mph5.6 kmh 30.28 in1025.4 mb - 0.01 in0.3 mm 0.09 in2.3 mm
03:15 AM 49.2°F9.6°C 47.5°F8.6°C 94% 3.5 mph SSW5.6 kmh SSW 3.5 mph5.6 kmh 30.25 in1024.4 mb - 0.01 in0.3 mm 0.10 in2.5 mm
03:30 AM 50.2°F10.1°C 48.2°F9.0°C 93% 4.6 mph SSW7.4 kmh SSW 5.8 mph9.3 kmh 30.25 in1024.4 mb - 0.00 in0.0 mm 0.10 in2.5 mm
03:45 AM 50.8°F10.4°C 48.3°F9.1°C 91% 2.3 mph SSW3.7 kmh SSW 3.5 mph5.6 kmh 30.25 in1024.4 mb - 0.00 in0.0 mm 0.10 in2.5 mm
04:00 AM 50.9°F10.5°C 48.4°F9.1°C 91% 10.4 mph SW16.7 kmh SW 11.5 mph18.5 kmh 30.25 in1024.4 mb - 0.00 in0.0 mm 0.10 in2.5 mm
04:15 AM 51.3°F10.7°C 48.5°F9.2°C 90% 8.1 mph SW13.0 kmh SW 10.4 mph16.7 kmh 30.25 in1024.4 mb - 0.01 in0.3 mm 0.11 in2.8 mm
04:30 AM 51.2°F10.7°C 48.4°F9.1°C 90% 6.9 mph SW11.1 kmh SW 9.2 mph14.8 kmh 30.25 in1024.4 mb - 0.00 in0.0 mm 0.11 in2.8 mm
04:45 AM 50.7°F10.4°C 48.2°F9.0°C 91% 8.1 mph SSW13.0 kmh SSW 11.5 mph18.5 kmh 30.26 in1024.7 mb - 0.01 in0.3 mm 0.12 in3.0 mm
05:00 AM 50.6°F10.3°C 48.1°F8.9°C 91% 6.9 mph SW11.1 kmh SW 11.5 mph18.5 kmh 30.26 in1024.7 mb - 0.02 in0.5 mm 0.13 in3.3 mm
05:15 AM 50.6°F10.3°C 48.1°F8.9°C 91% 8.1 mph SW13.0 kmh SW 8.1 mph13.0 kmh 30.26 in1024.7 mb - 0.02 in0.5 mm 0.14 in3.6 mm
05:30 AM 50.6°F10.3°C 48.1°F8.9°C 91% 4.6 mph SW7.4 kmh SW 5.8 mph9.3 kmh 30.26 in1024.7 mb - 0.00 in0.0 mm 0.14 in3.6 mm
05:45 AM 50.5°F10.3°C 48.3°F9.1°C 92% 3.5 mph SW5.6 kmh SW 5.8 mph9.3 kmh 30.25 in1024.4 mb - 0.01 in0.3 mm 0.15 in3.8 mm
06:00 AM 50.2°F10.1°C 48.0°F8.9°C 92% 1.2 mph SW1.9 kmh SW -- 30.26 in1024.7 mb - 0.00 in0.0 mm 0.15 in3.8 mm
06:15 AM 51.0°F10.6°C 48.2°F9.0°C 90% 8.1 mph SSW13.0 kmh SSW 10.4 mph16.7 kmh 30.25 in1024.4 mb - 0.00 in0.0 mm 0.15 in3.8 mm
06:30 AM 51.5°F10.8°C 48.4°F9.1°C 89% 8.1 mph SSW13.0 kmh SSW 10.4 mph16.7 kmh 30.25 in1024.4 mb - 0.00 in0.0 mm 0.15 in3.8 mm
06:45 AM 51.6°F10.9°C 48.4°F9.1°C 89% 5.8 mph SSW9.3 kmh SSW 6.9 mph11.1 kmh 30.25 in1024.4 mb - 0.00 in0.0 mm 0.15 in3.8 mm
07:00 AM 51.4°F10.8°C 48.6°F9.2°C 90% 8.1 mph SW13.0 kmh SW 9.2 mph14.8 kmh 30.25 in1024.4 mb - 0.00 in0.0 mm 0.15 in3.8 mm
07:15 AM 51.4°F10.8°C 48.6°F9.2°C 90% 11.5 mph SW18.5 kmh SW 13.8 mph22.2 kmh 30.25 in1024.4 mb - 0.00 in0.0 mm 0.15 in3.8 mm
07:30 AM 51.8°F11.0°C 48.7°F9.3°C 89% 10.4 mph SW16.7 kmh SW 12.7 mph20.4 kmh 30.26 in1024.7 mb - 0.00 in0.0 mm 0.15 in3.8 mm
07:45 AM 51.8°F11.0°C 48.7°F9.3°C 89% 9.2 mph SW14.8 kmh SW 11.5 mph18.5 kmh 30.26 in1024.7 mb - 0.00 in0.0 mm 0.15 in3.8 mm
08:00 AM 51.9°F11.1°C 49.1°F9.5°C 90% 8.1 mph SW13.0 kmh SW 11.5 mph18.5 kmh 30.27 in1025.1 mb - 0.01 in0.3 mm 0.16 in4.1 mm
08:15 AM 51.6°F10.9°C 48.8°F9.3°C 90% 6.9 mph SW11.1 kmh SW 11.5 mph18.5 kmh 30.26 in1024.7 mb - 0.01 in0.3 mm 0.17 in4.3 mm
08:30 AM 51.8°F11.0°C 49.0°F9.4°C 90% 8.1 mph S13.0 kmh S 10.4 mph16.7 kmh 30.26 in1024.7 mb - 0.00 in0.0 mm 0.17 in4.3 mm
08:45 AM 51.8°F11.0°C 49.3°F9.6°C 91% 6.9 mph S11.1 kmh S 10.4 mph16.7 kmh 30.26 in1024.7 mb - 0.00 in0.0 mm 0.17 in4.3 mm
09:00 AM 52.2°F11.2°C 49.3°F9.6°C 90% 3.5 mph S5.6 kmh S 4.6 mph7.4 kmh 30.27 in1025.1 mb - 0.00 in0.0 mm 0.17 in4.3 mm
09:15 AM 52.6°F11.4°C 49.4°F9.7°C 89% 4.6 mph S7.4 kmh S 4.6 mph7.4 kmh 30.28 in1025.4 mb - 0.00 in0.0 mm 0.17 in4.3 mm
09:30 AM 53.0°F11.7°C 49.9°F9.9°C 89% 8.1 mph SW13.0 kmh SW 11.5 mph18.5 kmh 30.27 in1025.1 mb - 0.00 in0.0 mm 0.17 in4.3 mm
09:45 AM 53.9°F12.2°C 50.1°F10.1°C 87% 5.8 mph SW9.3 kmh SW 6.9 mph11.1 kmh 30.27 in1025.1 mb - 0.00 in0.0 mm 0.17 in4.3 mm
10:00 AM 54.1°F12.3°C 50.3°F10.2°C 87% 4.6 mph SSW7.4 kmh SSW 4.6 mph7.4 kmh 30.27 in1025.1 mb - 0.00 in0.0 mm 0.17 in4.3 mm
10:15 AM 53.9°F12.2°C 50.4°F10.2°C 88% 4.6 mph S7.4 kmh S 5.8 mph9.3 kmh 30.29 in1025.7 mb - 0.00 in0.0 mm 0.17 in4.3 mm
10:30 AM 54.7°F12.6°C 50.6°F10.3°C 86% 9.2 mph S14.8 kmh S 11.5 mph18.5 kmh 30.28 in1025.4 mb - 0.00 in0.0 mm 0.17 in4.3 mm
10:45 AM 54.8°F12.7°C 50.4°F10.2°C 85% 8.1 mph S13.0 kmh S 12.7 mph20.4 kmh 30.28 in1025.4 mb - 0.00 in0.0 mm 0.17 in4.3 mm
11:00 AM 54.8°F12.7°C 50.4°F10.2°C 85% 4.6 mph S7.4 kmh S 5.8 mph9.3 kmh 30.27 in1025.1 mb - 0.00 in0.0 mm 0.17 in4.3 mm
11:15 AM 54.9°F12.7°C 50.5°F10.3°C 85% 3.5 mph S5.6 kmh S 3.5 mph5.6 kmh 30.27 in1025.1 mb - 0.00 in0.0 mm 0.17 in4.3 mm
11:30 AM 55.4°F13.0°C 50.6°F10.3°C 84% 4.6 mph S7.4 kmh S 4.6 mph7.4 kmh 30.27 in1025.1 mb - 0.00 in0.0 mm 0.17 in4.3 mm
11:45 AM 55.7°F13.2°C 50.9°F10.5°C 84% 6.9 mph S11.1 kmh S 10.4 mph16.7 kmh 30.26 in1024.7 mb - 0.00 in0.0 mm 0.17 in4.3 mm
12:00 PM 55.5°F13.1°C 50.7°F10.4°C 84% 6.9 mph SSW11.1 kmh SSW 9.2 mph14.8 kmh 30.26 in1024.7 mb - 0.00 in0.0 mm 0.17 in4.3 mm
12:15 PM 55.8°F13.2°C 51.0°F10.6°C 84% 3.5 mph S5.6 kmh S 3.5 mph5.6 kmh 30.24 in1024.0 mb - 0.00 in0.0 mm 0.17 in4.3 mm
12:30 PM 56.3°F13.5°C 51.5°F10.8°C 84% 6.9 mph S11.1 kmh S 9.2 mph14.8 kmh 30.24 in1024.0 mb - 0.00 in0.0 mm 0.17 in4.3 mm
12:45 PM 57.2°F14.0°C 52.1°F11.2°C 83% 3.5 mph S5.6 kmh S 3.5 mph5.6 kmh 30.24 in1024.0 mb - 0.00 in0.0 mm 0.17 in4.3 mm
01:00 PM 57.3°F14.1°C 51.5°F10.8°C 81% 5.8 mph SSW9.3 kmh SSW 8.1 mph13.0 kmh 30.24 in1024.0 mb - 0.00 in0.0 mm 0.17 in4.3 mm
01:15 PM 57.8°F14.3°C 51.3°F10.7°C 79% 5.8 mph SW9.3 kmh SW 6.9 mph11.1 kmh 30.23 in1023.7 mb - 0.00 in0.0 mm 0.17 in4.3 mm
01:30 PM 57.6°F14.2°C 51.8°F11.0°C 81% 4.6 mph SW7.4 kmh SW 5.8 mph9.3 kmh 30.23 in1023.7 mb - 0.00 in0.0 mm 0.17 in4.3 mm
01:45 PM 57.8°F14.3°C 52.0°F11.1°C 81% Calm Calm -- 30.22 in1023.4 mb - 0.00 in0.0 mm 0.17 in4.3 mm
02:00 PM 57.8°F14.3°C 51.7°F10.9°C 80% 4.6 mph S7.4 kmh S 5.8 mph9.3 kmh 30.22 in1023.4 mb - 0.00 in0.0 mm 0.17 in4.3 mm
02:15 PM 57.4°F14.1°C 51.0°F10.6°C 79% 6.9 mph SSW11.1 kmh SSW 9.2 mph14.8 kmh 30.22 in1023.4 mb - 0.00 in0.0 mm 0.17 in4.3 mm
02:30 PM 56.8°F13.8°C 51.4°F10.8°C 82% Calm Calm -- 30.23 in1023.7 mb - 0.00 in0.0 mm 0.17 in4.3 mm
02:45 PM 56.8°F13.8°C 51.4°F10.8°C 82% 5.8 mph SSW9.3 kmh SSW 6.9 mph11.1 kmh 30.22 in1023.4 mb - 0.00 in0.0 mm 0.17 in4.3 mm
03:00 PM 56.8°F13.8°C 51.3°F10.7°C 82% 4.6 mph SSW7.4 kmh SSW 4.6 mph7.4 kmh 30.22 in1023.4 mb - 0.00 in0.0 mm 0.17 in4.3 mm
03:15 PM 56.1°F13.4°C 51.0°F10.6°C 83% 4.6 mph SW7.4 kmh SW 5.8 mph9.3 kmh 30.22 in1023.4 mb - 0.00 in0.0 mm 0.17 in4.3 mm
03:30 PM 55.5°F13.1°C 50.7°F10.4°C 84% 3.5 mph SW5.6 kmh SW 3.5 mph5.6 kmh 30.21 in1023.0 mb - 0.00 in0.0 mm 0.17 in4.3 mm
03:45 PM 55.3°F12.9°C 50.5°F10.3°C 84% 2.3 mph SW3.7 kmh SW 2.3 mph3.7 kmh 30.22 in1023.4 mb - 0.00 in0.0 mm 0.17 in4.3 mm
04:00 PM 55.6°F13.1°C 50.2°F10.1°C 82% 4.6 mph SW7.4 kmh SW 4.6 mph7.4 kmh 30.21 in1023.0 mb - 0.00 in0.0 mm 0.17 in4.3 mm
04:15 PM 55.7°F13.2°C 49.6°F9.8°C 80% Calm Calm -- 30.20 in1022.7 mb - 0.00 in0.0 mm 0.17 in4.3 mm
04:30 PM 55.7°F13.2°C 49.3°F9.6°C 79% Calm Calm -- 30.20 in1022.7 mb - 0.00 in0.0 mm 0.17 in4.3 mm
04:45 PM 54.7°F12.6°C 49.0°F9.4°C 81% Calm Calm -- 30.19 in1022.4 mb - 0.00 in0.0 mm 0.17 in4.3 mm
05:00 PM 54.4°F12.4°C 49.0°F9.4°C 82% 1.2 mph S1.9 kmh S 3.5 mph5.6 kmh 30.20 in1022.7 mb - 0.00 in0.0 mm 0.17 in4.3 mm
05:15 PM 53.7°F12.1°C 48.4°F9.1°C 82% 1.2 mph S1.9 kmh S 2.3 mph3.7 kmh 30.21 in1023.0 mb - 0.00 in0.0 mm 0.17 in4.3 mm
05:30 PM 52.4°F11.3°C 47.4°F8.6°C 83% 3.5 mph SSW5.6 kmh SSW 3.5 mph5.6 kmh 30.21 in1023.0 mb - 0.00 in0.0 mm 0.17 in4.3 mm
05:45 PM 54.0°F12.2°C 48.0°F8.9°C 80% 6.9 mph WSW11.1 kmh WSW 9.2 mph14.8 kmh 30.20 in1022.7 mb - 0.00 in0.0 mm 0.17 in4.3 mm
06:00 PM 53.4°F11.9°C 47.4°F8.6°C 80% 5.8 mph SW9.3 kmh SW 6.9 mph11.1 kmh 30.21 in1023.0 mb - 0.00 in0.0 mm 0.17 in4.3 mm
06:15 PM 53.7°F12.1°C 47.6°F8.7°C 80% 5.8 mph SW9.3 kmh SW 5.8 mph9.3 kmh 30.19 in1022.4 mb - 0.00 in0.0 mm 0.17 in4.3 mm
06:30 PM 52.7°F11.5°C 47.0°F8.3°C 81% 4.6 mph SW7.4 kmh SW 5.8 mph9.3 kmh 30.19 in1022.4 mb - 0.00 in0.0 mm 0.17 in4.3 mm
06:45 PM 53.2°F11.8°C 46.9°F8.3°C 79% 3.5 mph SW5.6 kmh SW 3.5 mph5.6 kmh 30.19 in1022.4 mb - 0.00 in0.0 mm 0.17 in4.3 mm
07:00 PM 53.2°F11.8°C 46.9°F8.3°C 79% 3.5 mph SW5.6 kmh SW 3.5 mph5.6 kmh 30.19 in1022.4 mb - 0.00 in0.0 mm 0.17 in4.3 mm
07:15 PM 53.7°F12.1°C 47.0°F8.3°C 78% 2.3 mph SW3.7 kmh SW 3.5 mph5.6 kmh 30.18 in1022.0 mb - 0.00 in0.0 mm 0.17 in4.3 mm
07:30 PM 53.9°F12.2°C 46.9°F8.3°C 77% 3.5 mph SW5.6 kmh SW 4.6 mph7.4 kmh 30.17 in1021.7 mb - 0.00 in0.0 mm 0.17 in4.3 mm
07:45 PM 54.1°F12.3°C 47.1°F8.4°C 77% Calm Calm -- 30.17 in1021.7 mb - 0.00 in0.0 mm 0.17 in4.3 mm
08:00 PM 52.9°F11.6°C 46.6°F8.1°C 79% 4.6 mph SW7.4 kmh SW 10.4 mph16.7 kmh 30.17 in1021.7 mb - 0.00 in0.0 mm 0.17 in4.3 mm
08:15 PM 52.8°F11.6°C 46.5°F8.1°C 79% 8.1 mph SSW13.0 kmh SSW 10.4 mph16.7 kmh 30.18 in1022.0 mb - 0.00 in0.0 mm 0.17 in4.3 mm
08:30 PM 52.6°F11.4°C 46.6°F8.1°C 80% 3.5 mph SSW5.6 kmh SSW 3.5 mph5.6 kmh 30.18 in1022.0 mb - 0.00 in0.0 mm 0.17 in4.3 mm
08:45 PM 52.7°F11.5°C 46.4°F8.0°C 79% 4.6 mph SSW7.4 kmh SSW 4.6 mph7.4 kmh 30.17 in1021.7 mb - 0.00 in0.0 mm 0.17 in4.3 mm
09:00 PM 51.8°F11.0°C 46.2°F7.9°C 81% 3.5 mph SW5.6 kmh SW 3.5 mph5.6 kmh 30.16 in1021.3 mb - 0.00 in0.0 mm 0.17 in4.3 mm
09:15 PM 52.6°F11.4°C 46.2°F7.9°C 79% 2.3 mph SW3.7 kmh SW 3.5 mph5.6 kmh 30.15 in1021.0 mb - 0.00 in0.0 mm 0.17 in4.3 mm
09:30 PM 51.9°F11.1°C 45.9°F7.7°C 80% 1.2 mph SW1.9 kmh SW -- 30.15 in1021.0 mb - 0.00 in0.0 mm 0.17 in4.3 mm
09:45 PM 51.8°F11.0°C 46.2°F7.9°C 81% 3.5 mph SW5.6 kmh SW 4.6 mph7.4 kmh 30.14 in1020.7 mb - 0.00 in0.0 mm 0.17 in4.3 mm
10:00 PM 52.5°F11.4°C 46.5°F8.1°C 80% 8.1 mph WSW13.0 kmh WSW 11.5 mph18.5 kmh 30.16 in1021.3 mb - 0.00 in0.0 mm 0.17 in4.3 mm
10:15 PM 54.2°F12.3°C 46.8°F8.2°C 76% 4.6 mph WSW7.4 kmh WSW 4.6 mph7.4 kmh 30.14 in1020.7 mb - 0.00 in0.0 mm 0.17 in4.3 mm
10:30 PM 54.4°F12.4°C 46.6°F8.1°C 75% 3.5 mph WSW5.6 kmh WSW 4.6 mph7.4 kmh 30.12 in1020.0 mb - 0.00 in0.0 mm 0.17 in4.3 mm
10:45 PM 53.7°F12.1°C 46.3°F7.9°C 76% 1.2 mph SW1.9 kmh SW 3.5 mph5.6 kmh 30.11 in1019.6 mb - 0.00 in0.0 mm 0.17 in4.3 mm
11:00 PM 52.8°F11.6°C 46.1°F7.8°C 78% 2.3 mph SW3.7 kmh SW 3.5 mph5.6 kmh 30.11 in1019.6 mb - 0.00 in0.0 mm 0.17 in4.3 mm
11:15 PM 52.3°F11.3°C 46.0°F7.8°C 79% 4.6 mph SE7.4 kmh SE 5.8 mph9.3 kmh 30.10 in1019.3 mb - 0.00 in0.0 mm 0.17 in4.3 mm
11:30 PM 52.0°F11.1°C 46.0°F7.8°C 80% Calm Calm 2.3 mph3.7 kmh 30.09 in1019.0 mb - 0.00 in0.0 mm 0.17 in4.3 mm
11:45 PM 51.3°F10.7°C 45.7°F7.6°C 81% Calm Calm -- 30.09 in1019.0 mb - 0.00 in0.0 mm 0.17 in4.3 mm